Terminal Aerodrome Forecast
Issued by NWS

Home | Current Version | Previous Version | Text Only | Print | Product List | Glossary On
Versions: 1 2 3 4 5 6 7 8 9 10 11 12 13 14 15 16 17 18 19 20 21 22 23 24 25 26 27 28 29 30 31
000
FTUS45 KCYS 240533
TAFLAR
TAF
KLAR 240533Z 2406/2506 VRB05KT P6SM SCT200
     FM240800 16008KT P6SM SCT200
     FM241400 17015G24KT P6SM SCT120 BKN200
     FM241900 18017G25KT P6SM VCTS SCT060CB BKN100
     FM250000 21013KT P6SM SCT100 BKN200=

USA.gov is the U.S. government's official web portal to all federal, state and local government web resources and services.